Tabor, Iowa
Current Conditions -  °F | °C
As of 12:35 PM on Sunday 23 Nov 2014 (Local Time) from KPMV Reporting Station
Overcast Overcast  
Wind Chill: 39°   Ceiling: 3800
Heat Index: 47°   Visibility: 10mi
Dew Point: 40°   Wind: 23mph
Humidity: 76%   Direction: 320°NW
Pressure: 29.45"   Gusts: 30mph
Location:  40.9°N, 95.67°W
Report Text: KPMV 231835Z AUTO 32020G26KT 10SM SCT024 OVC038 09/05 A2945 RMK AO2 T00850045
Loading
Personal Weather Stations






























Interactive Weather Map New forecast layout! Learn more

10-Day Weather Forecast

Advertisements
Track Severe Weather on mobile